KGUS/GUS METAR and TAF weather

Enter ICAO airport designator
Station Type Date Time Source
KGUS METAR 2021/03/02 12:56 UTC NOAA

KGUS 021256Z AUTO 13005KT 10SM CLR M06/M07 A3031 RMK AO2 SLP279 T10561067 $


Station Type Date Time Source
KGUS Decoded METAR 2021/03/02 12:56 UTC NOAA

Grissom Air Force Base / Peru, IN, United States (KGUS) 40-39N 086-09W
Mar 02, 2021 - 07:56 AM EST / 2021.03.02 1256 UTC
Wind: from the SE (130 degrees) at 6 MPH (5 KT):0
Visibility: 10 mile(s):0
Sky conditions: clear
Temperature: 21.9 F (-5.6 C)
Windchill: 14 F (-10 C):1
Dew Point: 19.9 F (-6.7 C)
Relative Humidity: 91%
Pressure (altimeter): 30.31 in. Hg (1026 hPa)
ob: KGUS 021256Z AUTO 13005KT 10SM CLR M06/M07 A3031 RMK AO2 SLP279 T10561067
cycle: 13

Station Type Date Time Source
KGUS TAF 2021/03/02 13:06 UTC NOAA

TAF TAF KGUS 021300Z 0213/0319 VRB06KT 9999 SKC QNH3024INS
BECMG 0217/0218 20012KT 9999 SKC QNH3012INS
BECMG 0221/0222 23012G18KT 9999 SKC QNH3009INS
BECMG 0223/0224 21006KT 9999 SKC QNH3000INS
BECMG 0304/0305 24009KT 9999 SKC WS020/27040KT QNH2994INS
BECMG 0314/0315 27010G15KT 9999 SKC QNH2999INS TX06/0219Z TNM05/0213Z

Example: see airport list